sensor_id;sensor_type;location;lat;lon;timestamp;pressure;altitude;pressure_sealevel;temperature;humidity
21290;BME280;10804;48.988;2.408;2023-05-10T00:00:12;100515.50;;;16.60;65.99
21290;BME280;10804;48.988;2.408;2023-05-10T00:02:40;100511.22;;;16.58;66.07
21290;BME280;10804;48.988;2.408;2023-05-10T00:05:08;100518.34;;;16.56;66.02
21290;BME280;10804;48.988;2.408;2023-05-10T00:07:36;100514.13;;;16.53;66.08
21290;BME280;10804;48.988;2.408;2023-05-10T00:10:05;100516.81;;;16.52;66.20
21290;BME280;10804;48.988;2.408;2023-05-10T00:12:32;100516.06;;;16.50;66.12
21290;BME280;10804;48.988;2.408;2023-05-10T00:14:59;100516.13;;;16.48;66.21
21290;BME280;10804;48.988;2.408;2023-05-10T00:17:26;100524.19;;;16.45;66.19
21290;BME280;10804;48.988;2.408;2023-05-10T00:19:54;100525.09;;;16.44;66.39
21290;BME280;10804;48.988;2.408;2023-05-10T00:22:21;100526.22;;;16.40;66.32
21290;BME280;10804;48.988;2.408;2023-05-10T00:24:50;100521.88;;;16.39;66.32
21290;BME280;10804;48.988;2.408;2023-05-10T00:27:17;100534.31;;;16.36;66.25
21290;BME280;10804;48.988;2.408;2023-05-10T00:29:45;100531.69;;;16.36;66.38
21290;BME280;10804;48.988;2.408;2023-05-10T00:32:12;100534.47;;;16.33;66.32
21290;BME280;10804;48.988;2.408;2023-05-10T00:34:39;100528.38;;;16.32;66.40
21290;BME280;10804;48.988;2.408;2023-05-10T00:37:07;100530.22;;;16.30;66.45
21290;BME280;10804;48.988;2.408;2023-05-10T00:39:34;100522.41;;;16.29;66.32
21290;BME280;10804;48.988;2.408;2023-05-10T00:42:04;100532.06;;;16.28;66.49
21290;BME280;10804;48.988;2.408;2023-05-10T00:44:31;100535.72;;;16.26;66.57
21290;BME280;10804;48.988;2.408;2023-05-10T00:46:59;100537.56;;;16.24;66.50
21290;BME280;10804;48.988;2.408;2023-05-10T00:49:27;100534.13;;;16.23;66.57
21290;BME280;10804;48.988;2.408;2023-05-10T00:51:55;100544.72;;;16.22;66.51
21290;BME280;10804;48.988;2.408;2023-05-10T00:54:22;100544.78;;;16.20;66.57
21290;BME280;10804;48.988;2.408;2023-05-10T00:56:51;100551.84;;;16.20;66.45
21290;BME280;10804;48.988;2.408;2023-05-10T00:59:20;100556.31;;;16.18;66.58
21290;BME280;10804;48.988;2.408;2023-05-10T01:01:48;100558.09;;;16.17;66.68
21290;BME280;10804;48.988;2.408;2023-05-10T01:04:15;100559.09;;;16.15;66.54
21290;BME280;10804;48.988;2.408;2023-05-10T01:06:43;100549.56;;;16.12;66.57
21290;BME280;10804;48.988;2.408;2023-05-10T01:09:10;100552.31;;;16.11;66.62
21290;BME280;10804;48.988;2.408;2023-05-10T01:11:39;100547.94;;;16.10;66.59
21290;BME280;10804;48.988;2.408;2023-05-10T01:14:07;100547.19;;;16.08;66.55
21290;BME280;10804;48.988;2.408;2023-05-10T01:16:38;100551.75;;;16.04;66.72
21290;BME280;10804;48.988;2.408;2023-05-10T01:19:08;100559.75;;;16.03;66.61
21290;BME280;10804;48.988;2.408;2023-05-10T01:21:43;100545.78;;;16.01;66.73
21290;BME280;10804;48.988;2.408;2023-05-10T01:24:46;100556.47;;;15.98;66.66
21290;BME280;10804;48.988;2.408;2023-05-10T01:27:29;100550.59;;;15.93;66.70
21290;BME280;10804;48.988;2.408;2023-05-10T01:33:24;100555.94;;;15.91;66.97
21290;BME280;10804;48.988;2.408;2023-05-10T01:36:01;100552.44;;;15.91;66.84
21290;BME280;10804;48.988;2.408;2023-05-10T01:38:36;100552.63;;;15.88;66.86
21290;BME280;10804;48.988;2.408;2023-05-10T01:41:13;100553.63;;;15.85;66.78
21290;BME280;10804;48.988;2.408;2023-05-10T01:43:48;100562.50;;;15.83;66.93
21290;BME280;10804;48.988;2.408;2023-05-10T01:46:24;100566.06;;;15.82;66.89
21290;BME280;10804;48.988;2.408;2023-05-10T01:48:57;100573.97;;;15.82;67.00
21290;BME280;10804;48.988;2.408;2023-05-10T01:51:30;100577.53;;;15.81;67.00
21290;BME280;10804;48.988;2.408;2023-05-10T01:54:01;100563.72;;;15.76;66.97
21290;BME280;10804;48.988;2.408;2023-05-10T01:56:32;100564.59;;;15.77;66.86
21290;BME280;10804;48.988;2.408;2023-05-10T01:59:00;100567.34;;;15.73;66.82
21290;BME280;10804;48.988;2.408;2023-05-10T02:01:29;100576.19;;;15.73;67.04
21290;BME280;10804;48.988;2.408;2023-05-10T02:03:59;100568.28;;;15.73;67.02
21290;BME280;10804;48.988;2.408;2023-05-10T02:06:27;100577.94;;;15.72;67.10
21290;BME280;10804;48.988;2.408;2023-05-10T02:08:55;100574.53;;;15.70;66.99
21290;BME280;10804;48.988;2.408;2023-05-10T02:11:24;100564.03;;;15.70;67.06
21290;BME280;10804;48.988;2.408;2023-05-10T02:13:53;100572.84;;;15.69;66.99
21290;BME280;10804;48.988;2.408;2023-05-10T02:16:27;100573.78;;;15.68;67.06
21290;BME280;10804;48.988;2.408;2023-05-10T02:18:59;100570.38;;;15.66;66.99
21290;BME280;10804;48.988;2.408;2023-05-10T02:21:29;100566.94;;;15.64;67.21
21290;BME280;10804;48.988;2.408;2023-05-10T02:23:59;100564.47;;;15.61;66.91
21290;BME280;10804;48.988;2.408;2023-05-10T02:26:29;100565.41;;;15.60;67.04
21290;BME280;10804;48.988;2.408;2023-05-10T02:28:58;100574.06;;;15.62;66.99
21290;BME280;10804;48.988;2.408;2023-05-10T02:31:30;100575.00;;;15.61;67.20
21290;BME280;10804;48.988;2.408;2023-05-10T02:33:59;100574.22;;;15.59;67.10
21290;BME280;10804;48.988;2.408;2023-05-10T02:36:28;100578.63;;;15.59;67.02
21290;BME280;10804;48.988;2.408;2023-05-10T02:38:58;100572.53;;;15.58;67.06
21290;BME280;10804;48.988;2.408;2023-05-10T02:41:30;100572.59;;;15.57;67.08
21290;BME280;10804;48.988;2.408;2023-05-10T02:43:59;100568.25;;;15.56;67.02
21290;BME280;10804;48.988;2.408;2023-05-10T02:46:28;100567.41;;;15.55;67.08
21290;BME280;10804;48.988;2.408;2023-05-10T02:48:56;100567.56;;;15.52;66.91
21290;BME280;10804;48.988;2.408;2023-05-10T02:51:28;100572.81;;;15.52;67.25
21290;BME280;10804;48.988;2.408;2023-05-10T02:54:03;100568.63;;;15.48;67.19
21290;BME280;10804;48.988;2.408;2023-05-10T02:56:35;100579.94;;;15.50;67.22
21290;BME280;10804;48.988;2.408;2023-05-10T02:59:05;100577.38;;;15.49;66.98
21290;BME280;10804;48.988;2.408;2023-05-10T03:01:32;100571.25;;;15.48;67.20
21290;BME280;10804;48.988;2.408;2023-05-10T03:04:00;100571.34;;;15.47;67.03
21290;BME280;10804;48.988;2.408;2023-05-10T03:06:29;100572.28;;;15.46;67.13
21290;BME280;10804;48.988;2.408;2023-05-10T03:08:57;100564.38;;;15.46;67.14
21290;BME280;10804;48.988;2.408;2023-05-10T03:11:35;100561.88;;;15.43;67.06
21290;BME280;10804;48.988;2.408;2023-05-10T03:14:15;100563.69;;;15.42;66.99
21290;BME280;10804;48.988;2.408;2023-05-10T03:16:46;100563.69;;;15.42;66.93
21290;BME280;10804;48.988;2.408;2023-05-10T03:19:18;100551.53;;;15.40;67.06
21290;BME280;10804;48.988;2.408;2023-05-10T03:21:50;100555.09;;;15.39;67.09
21290;BME280;10804;48.988;2.408;2023-05-10T03:24:20;100554.22;;;15.38;66.96
21290;BME280;10804;48.988;2.408;2023-05-10T03:26:49;100562.09;;;15.38;67.12
21290;BME280;10804;48.988;2.408;2023-05-10T03:29:20;100567.38;;;15.38;67.11
21290;BME280;10804;48.988;2.408;2023-05-10T03:31:48;100558.72;;;15.36;67.16
21290;BME280;10804;48.988;2.408;2023-05-10T03:34:16;100569.28;;;15.35;67.12
21290;BME280;10804;48.988;2.408;2023-05-10T03:36:46;100571.97;;;15.33;67.05
21290;BME280;10804;48.988;2.408;2023-05-10T03:39:14;100559.75;;;15.32;67.20
21290;BME280;10804;48.988;2.408;2023-05-10T03:41:43;100557.31;;;15.28;67.18
21290;BME280;10804;48.988;2.408;2023-05-10T03:44:11;100567.66;;;15.32;67.18
21290;BME280;10804;48.988;2.408;2023-05-10T03:46:39;100565.88;;;15.33;67.00
21290;BME280;10804;48.988;2.408;2023-05-10T03:49:06;100564.22;;;15.30;67.16
21290;BME280;10804;48.988;2.408;2023-05-10T03:51:33;100573.84;;;15.31;67.04
21290;BME280;10804;48.988;2.408;2023-05-10T03:54:01;100562.47;;;15.31;67.14
21290;BME280;10804;48.988;2.408;2023-05-10T03:56:29;100563.44;;;15.28;67.06
21290;BME280;10804;48.988;2.408;2023-05-10T03:58:57;100563.50;;;15.27;67.01
21290;BME280;10804;48.988;2.408;2023-05-10T04:01:25;100567.91;;;15.26;67.06
21290;BME280;10804;48.988;2.408;2023-05-10T04:03:52;100563.56;;;15.25;67.01
21290;BME280;10804;48.988;2.408;2023-05-10T04:06:19;100558.31;;;15.25;67.01
21290;BME280;10804;48.988;2.408;2023-05-10T04:08:46;100563.56;;;15.25;67.19
21290;BME280;10804;48.988;2.408;2023-05-10T04:11:14;100563.72;;;15.22;67.02
21290;BME280;10804;48.988;2.408;2023-05-10T04:13:43;100552.44;;;15.20;67.00
21290;BME280;10804;48.988;2.408;2023-05-10T04:16:10;100547.09;;;15.22;67.22
21290;BME280;10804;48.988;2.408;2023-05-10T04:18:37;100555.06;;;15.20;67.07
21290;BME280;10804;48.988;2.408;2023-05-10T04:21:11;100538.44;;;15.20;66.92
21290;BME280;10804;48.988;2.408;2023-05-10T04:23:38;100547.25;;;15.19;67.09
21290;BME280;10804;48.988;2.408;2023-05-10T04:26:05;100549.81;;;15.20;66.96
21290;BME280;10804;48.988;2.408;2023-05-10T04:28:33;100549.88;;;15.19;66.97
21290;BME280;10804;48.988;2.408;2023-05-10T04:31:03;100542.94;;;15.18;67.10
21290;BME280;10804;48.988;2.408;2023-05-10T04:33:30;100546.56;;;15.15;67.00
21290;BME280;10804;48.988;2.408;2023-05-10T04:35:58;100545.56;;;15.18;66.88
21290;BME280;10804;48.988;2.408;2023-05-10T04:38:25;100541.22;;;15.17;67.06
21290;BME280;10804;48.988;2.408;2023-05-10T04:40:53;100552.66;;;15.16;67.10
21290;BME280;10804;48.988;2.408;2023-05-10T04:43:20;100545.78;;;15.13;67.07
21290;BME280;10804;48.988;2.408;2023-05-10T04:45:47;100552.78;;;15.13;67.07
21290;BME280;10804;48.988;2.408;2023-05-10T04:48:17;100548.41;;;15.13;67.02
21290;BME280;10804;48.988;2.408;2023-05-10T04:50:44;100543.16;;;15.13;67.12
21290;BME280;10804;48.988;2.408;2023-05-10T04:53:12;100550.22;;;15.11;67.02
21290;BME280;10804;48.988;2.408;2023-05-10T04:55:39;100551.97;;;15.12;67.03
21290;BME280;10804;48.988;2.408;2023-05-10T04:58:06;100554.59;;;15.12;66.92
21290;BME280;10804;48.988;2.408;2023-05-10T05:00:34;100546.72;;;15.12;66.99
21290;BME280;10804;48.988;2.408;2023-05-10T05:03:01;100551.97;;;15.12;67.03
21290;BME280;10804;48.988;2.408;2023-05-10T05:05:30;100545.91;;;15.10;66.72
21290;BME280;10804;48.988;2.408;2023-05-10T05:07:57;100556.41;;;15.10;66.82
21290;BME280;10804;48.988;2.408;2023-05-10T05:10:25;100551.97;;;15.12;67.10
21290;BME280;10804;48.988;2.408;2023-05-10T05:12:52;100559.91;;;15.11;66.85
21290;BME280;10804;48.988;2.408;2023-05-10T05:15:19;100553.78;;;15.10;66.90
21290;BME280;10804;48.988;2.408;2023-05-10T05:17:47;100553.78;;;15.10;66.94
21290;BME280;10804;48.988;2.408;2023-05-10T05:20:14;100553.78;;;15.10;66.77
21290;BME280;10804;48.988;2.408;2023-05-10T05:22:43;100552.94;;;15.10;66.87
21290;BME280;10804;48.988;2.408;2023-05-10T05:25:10;100549.47;;;15.09;66.76
21290;BME280;10804;48.988;2.408;2023-05-10T05:27:37;100546.84;;;15.09;67.01
21290;BME280;10804;48.988;2.408;2023-05-10T05:30:06;100550.38;;;15.08;66.87
21290;BME280;10804;48.988;2.408;2023-05-10T05:32:33;100563.47;;;15.10;66.82
21290;BME280;10804;48.988;2.408;2023-05-10T05:35:01;100561.66;;;15.10;66.87
21290;BME280;10804;48.988;2.408;2023-05-10T05:37:28;100565.22;;;15.09;66.78
21290;BME280;10804;48.988;2.408;2023-05-10T05:39:57;100562.59;;;15.09;66.67
21290;BME280;10804;48.988;2.408;2023-05-10T05:42:24;100557.44;;;15.08;66.95
21290;BME280;10804;48.988;2.408;2023-05-10T05:44:52;100561.75;;;15.09;66.75
21290;BME280;10804;48.988;2.408;2023-05-10T05:47:19;100571.41;;;15.08;66.80
21290;BME280;10804;48.988;2.408;2023-05-10T05:49:46;100567.84;;;15.09;66.75
21290;BME280;10804;48.988;2.408;2023-05-10T05:52:14;100568.84;;;15.07;66.77
21290;BME280;10804;48.988;2.408;2023-05-10T05:54:41;100569.69;;;15.07;66.61
21290;BME280;10804;48.988;2.408;2023-05-10T05:57:10;100564.44;;;15.07;66.54
21290;BME280;10804;48.988;2.408;2023-05-10T05:59:37;100568.78;;;15.08;66.86
21290;BME280;10804;48.988;2.408;2023-05-10T06:02:08;100569.69;;;15.07;66.76
21290;BME280;10804;48.988;2.408;2023-05-10T06:04:36;100568.00;;;15.06;66.67
21290;BME280;10804;48.988;2.408;2023-05-10T06:07:03;100568.00;;;15.06;66.61
21290;BME280;10804;48.988;2.408;2023-05-10T06:09:31;100560.13;;;15.06;66.58
21290;BME280;10804;48.988;2.408;2023-05-10T06:11:58;100567.94;;;15.08;66.68
21290;BME280;10804;48.988;2.408;2023-05-10T06:14:26;100569.84;;;15.04;66.70
21290;BME280;10804;48.988;2.408;2023-05-10T06:16:54;100580.16;;;15.09;66.55
21290;BME280;10804;48.988;2.408;2023-05-10T06:19:21;100581.91;;;15.08;66.59
21290;BME280;10804;48.988;2.408;2023-05-10T06:21:48;100580.06;;;15.10;66.53
21290;BME280;10804;48.988;2.408;2023-05-10T06:24:16;100591.44;;;15.11;66.43
21290;BME280;10804;48.988;2.408;2023-05-10T06:26:43;100576.50;;;15.11;66.68
21290;BME280;10804;48.988;2.408;2023-05-10T06:29:10;100580.06;;;15.10;66.61
21290;BME280;10804;48.988;2.408;2023-05-10T06:31:39;100579.06;;;15.13;66.58
21290;BME280;10804;48.988;2.408;2023-05-10T06:34:07;100575.59;;;15.12;66.55
21290;BME280;10804;48.988;2.408;2023-05-10T06:36:34;100583.47;;;15.12;66.40
21290;BME280;10804;48.988;2.408;2023-05-10T06:39:01;100582.56;;;15.13;66.45
21290;BME280;10804;48.988;2.408;2023-05-10T06:41:29;100582.56;;;15.13;66.28
21290;BME280;10804;48.988;2.408;2023-05-10T06:43:56;100575.66;;;15.11;66.42
21290;BME280;10804;48.988;2.408;2023-05-10T06:46:23;100579.94;;;15.13;66.37
21290;BME280;10804;48.988;2.408;2023-05-10T06:48:52;100584.25;;;15.14;66.30
21290;BME280;10804;48.988;2.408;2023-05-10T06:51:19;100582.47;;;15.15;66.32
21290;BME280;10804;48.988;2.408;2023-05-10T06:53:47;100579.84;;;15.15;66.20
21290;BME280;10804;48.988;2.408;2023-05-10T06:56:14;100592.13;;;15.14;66.23
21290;BME280;10804;48.988;2.408;2023-05-10T06:58:41;100591.22;;;15.15;66.19
21290;BME280;10804;48.988;2.408;2023-05-10T07:01:09;100590.34;;;15.15;66.43
21290;BME280;10804;48.988;2.408;2023-05-10T07:03:36;100590.34;;;15.15;66.31
21290;BME280;10804;48.988;2.408;2023-05-10T07:06:05;100595.59;;;15.15;66.45
21290;BME280;10804;48.988;2.408;2023-05-10T07:08:33;100595.53;;;15.16;66.32
21290;BME280;10804;48.988;2.408;2023-05-10T07:11:01;100589.44;;;15.16;66.44
21290;BME280;10804;48.988;2.408;2023-05-10T07:13:29;100595.59;;;15.15;66.18
21290;BME280;10804;48.988;2.408;2023-05-10T07:15:57;100598.09;;;15.18;66.22
21290;BME280;10804;48.988;2.408;2023-05-10T07:18:25;100595.69;;;15.13;66.32
21290;BME280;10804;48.988;2.408;2023-05-10T07:20:52;100601.56;;;15.18;66.19
21290;BME280;10804;48.988;2.408;2023-05-10T07:23:21;100607.75;;;15.17;66.05
21290;BME280;10804;48.988;2.408;2023-05-10T07:25:49;100612.88;;;15.20;66.12
21290;BME280;10804;48.988;2.408;2023-05-10T07:28:18;100611.19;;;15.19;66.06
21290;BME280;10804;48.988;2.408;2023-05-10T07:30:45;100598.03;;;15.19;66.11
21290;BME280;10804;48.988;2.408;2023-05-10T07:33:14;100593.56;;;15.21;66.13
21290;BME280;10804;48.988;2.408;2023-05-10T07:35:42;100592.63;;;15.22;66.19
21290;BME280;10804;48.988;2.408;2023-05-10T07:38:09;100593.47;;;15.23;66.03
21290;BME280;10804;48.988;2.408;2023-05-10T07:40:38;100601.34;;;15.23;66.17
21290;BME280;10804;48.988;2.408;2023-05-10T07:43:06;100609.16;;;15.24;65.97
21290;BME280;10804;48.988;2.408;2023-05-10T07:45:33;100606.47;;;15.26;65.99
21290;BME280;10804;48.988;2.408;2023-05-10T07:48:01;100607.41;;;15.25;66.08
21290;BME280;10804;48.988;2.408;2023-05-10T07:50:28;100606.53;;;15.24;65.94
21290;BME280;10804;48.988;2.408;2023-05-10T07:52:55;100604.78;;;15.25;65.99
21290;BME280;10804;48.988;2.408;2023-05-10T07:55:23;100605.63;;;15.25;66.07
21290;BME280;10804;48.988;2.408;2023-05-10T07:57:51;100608.25;;;15.25;66.04
21290;BME280;10804;48.988;2.408;2023-05-10T08:00:19;100607.31;;;15.26;65.75
21290;BME280;10804;48.988;2.408;2023-05-10T08:02:47;100616.13;;;15.25;65.94
21290;BME280;10804;48.988;2.408;2023-05-10T08:05:15;100617.91;;;15.25;65.78
21290;BME280;10804;48.988;2.408;2023-05-10T08:07:42;100624.00;;;15.25;65.97
21290;BME280;10804;48.988;2.408;2023-05-10T08:10:10;100617.00;;;15.26;65.98
21290;BME280;10804;48.988;2.408;2023-05-10T08:12:38;100624.88;;;15.26;65.84
21290;BME280;10804;48.988;2.408;2023-05-10T08:15:08;100622.25;;;15.26;65.73
21290;BME280;10804;48.988;2.408;2023-05-10T08:17:36;100624.00;;;15.25;65.73
21290;BME280;10804;48.988;2.408;2023-05-10T08:20:04;100626.63;;;15.25;65.77
21290;BME280;10804;48.988;2.408;2023-05-10T08:22:31;100627.56;;;15.24;66.01
21290;BME280;10804;48.988;2.408;2023-05-10T08:24:58;100634.50;;;15.25;65.76
21290;BME280;10804;48.988;2.408;2023-05-10T08:27:26;100630.19;;;15.24;65.93
21290;BME280;10804;48.988;2.408;2023-05-10T08:29:53;100631.06;;;15.25;65.86
21290;BME280;10804;48.988;2.408;2023-05-10T08:32:22;100632.81;;;15.24;65.96
21290;BME280;10804;48.988;2.408;2023-05-10T08:34:49;100647.66;;;15.25;65.97
21290;BME280;10804;48.988;2.408;2023-05-10T08:37:16;100649.44;;;15.25;65.84
21290;BME280;10804;48.988;2.408;2023-05-10T08:39:43;100650.28;;;15.25;65.75
21290;BME280;10804;48.988;2.408;2023-05-10T08:42:16;100659.09;;;15.24;66.04
21290;BME280;10804;48.988;2.408;2023-05-10T08:44:47;100656.41;;;15.26;65.89
21290;BME280;10804;48.988;2.408;2023-05-10T08:47:16;100659.03;;;15.26;65.76
21290;BME280;10804;48.988;2.408;2023-05-10T08:49:47;100662.44;;;15.28;65.76
21290;BME280;10804;48.988;2.408;2023-05-10T08:52:17;100661.59;;;15.27;65.73
21290;BME280;10804;48.988;2.408;2023-05-10T08:54:46;100657.19;;;15.28;65.91
21290;BME280;10804;48.988;2.408;2023-05-10T08:57:14;100671.09;;;15.30;65.89
21290;BME280;10804;48.988;2.408;2023-05-10T08:59:41;100666.69;;;15.30;65.88
21290;BME280;10804;48.988;2.408;2023-05-10T09:02:10;100671.94;;;15.30;65.88
21290;BME280;10804;48.988;2.408;2023-05-10T09:04:38;100684.19;;;15.31;65.79
21290;BME280;10804;48.988;2.408;2023-05-10T09:07:07;100678.00;;;15.32;65.83
21290;BME280;10804;48.988;2.408;2023-05-10T09:09:35;100688.47;;;15.34;65.73
21290;BME280;10804;48.988;2.408;2023-05-10T09:12:04;100693.72;;;15.34;65.82
21290;BME280;10804;48.988;2.408;2023-05-10T09:14:33;100695.41;;;15.35;65.72
21290;BME280;10804;48.988;2.408;2023-05-10T09:17:02;100691.03;;;15.35;65.78
21290;BME280;10804;48.988;2.408;2023-05-10T09:19:29;100694.44;;;15.37;65.80
21290;BME280;10804;48.988;2.408;2023-05-10T09:21:57;100710.97;;;15.39;65.68
21290;BME280;10804;48.988;2.408;2023-05-10T09:24:29;100714.47;;;15.40;65.65
21290;BME280;10804;48.988;2.408;2023-05-10T09:26:57;100722.25;;;15.41;65.66
21290;BME280;10804;48.988;2.408;2023-05-10T09:29:24;100717.88;;;15.42;65.73
21290;BME280;10804;48.988;2.408;2023-05-10T09:31:52;100715.19;;;15.43;65.54
21290;BME280;10804;48.988;2.408;2023-05-10T09:34:28;100725.69;;;15.43;65.48
21290;BME280;10804;48.988;2.408;2023-05-10T09:36:57;100713.34;;;15.45;65.44
21290;BME280;10804;48.988;2.408;2023-05-10T09:39:32;100720.28;;;15.46;65.45
21290;BME280;10804;48.988;2.408;2023-05-10T09:42:01;100723.69;;;15.48;65.40
21290;BME280;10804;48.988;2.408;2023-05-10T09:44:29;100727.13;;;15.50;65.56
21290;BME280;10804;48.988;2.408;2023-05-10T09:46:57;100722.72;;;15.51;65.56
21290;BME280;10804;48.988;2.408;2023-05-10T09:49:24;100725.28;;;15.52;65.39
21290;BME280;10804;48.988;2.408;2023-05-10T09:52:00;100721.72;;;15.53;65.54
21290;BME280;10804;48.988;2.408;2023-05-10T09:54:28;100723.41;;;15.54;65.47
21290;BME280;10804;48.988;2.408;2023-05-10T09:56:57;100719.88;;;15.55;65.34
21290;BME280;10804;48.988;2.408;2023-05-10T09:59:25;100726.00;;;15.56;65.43
21290;BME280;10804;48.988;2.408;2023-05-10T10:01:56;100727.69;;;15.57;65.35
21290;BME280;10804;48.988;2.408;2023-05-10T10:04:23;100724.13;;;15.58;65.27
21290;BME280;10804;48.988;2.408;2023-05-10T10:07:01;100722.38;;;15.58;65.26
21290;BME280;10804;48.988;2.408;2023-05-10T10:09:29;100733.66;;;15.60;65.39
21290;BME280;10804;48.988;2.408;2023-05-10T10:11:59;100734.50;;;15.61;65.37
21290;BME280;10804;48.988;2.408;2023-05-10T10:14:26;100725.72;;;15.62;65.42
21290;BME280;10804;48.988;2.408;2023-05-10T10:16:54;100726.53;;;15.62;65.34
21290;BME280;10804;48.988;2.408;2023-05-10T10:19:21;100735.22;;;15.64;65.18
21290;BME280;10804;48.988;2.408;2023-05-10T10:21:49;100722.88;;;15.66;65.27
21290;BME280;10804;48.988;2.408;2023-05-10T10:24:17;100722.78;;;15.68;65.21
21290;BME280;10804;48.988;2.408;2023-05-10T10:26:44;100717.50;;;15.68;65.16
21290;BME280;10804;48.988;2.408;2023-05-10T10:29:23;100724.41;;;15.70;65.24
21290;BME280;10804;48.988;2.408;2023-05-10T10:31:59;100717.31;;;15.72;65.23
21290;BME280;10804;48.988;2.408;2023-05-10T10:34:30;100720.72;;;15.74;65.27
21290;BME280;10804;48.988;2.408;2023-05-10T10:37:04;100718.88;;;15.76;65.25
21290;BME280;10804;48.988;2.408;2023-05-10T10:39:32;100723.97;;;15.79;65.24
21290;BME280;10804;48.988;2.408;2023-05-10T10:42:03;100720.47;;;15.80;65.14
21290;BME280;10804;48.988;2.408;2023-05-10T10:44:38;100723.84;;;15.82;65.29
21290;BME280;10804;48.988;2.408;2023-05-10T10:47:10;100727.25;;;15.84;65.07
21290;BME280;10804;48.988;2.408;2023-05-10T10:49:51;100718.66;;;15.80;65.16
21290;BME280;10804;48.988;2.408;2023-05-10T10:52:31;100728.91;;;15.86;65.05
21290;BME280;10804;48.988;2.408;2023-05-10T10:55:01;100733.22;;;15.87;65.13
21290;BME280;10804;48.988;2.408;2023-05-10T10:57:32;100728.84;;;15.88;65.07
21290;BME280;10804;48.988;2.408;2023-05-10T11:00:21;100734.88;;;15.90;65.01
21290;BME280;10804;48.988;2.408;2023-05-10T11:02:50;100729.59;;;15.90;65.16
21290;BME280;10804;48.988;2.408;2023-05-10T11:05:25;100732.19;;;15.91;65.06
21290;BME280;10804;48.988;2.408;2023-05-10T11:08:06;100730.38;;;15.92;65.07
21290;BME280;10804;48.988;2.408;2023-05-10T11:10:34;100728.69;;;15.91;65.02
21290;BME280;10804;48.988;2.408;2023-05-10T11:13:02;100728.69;;;15.91;65.09
21290;BME280;10804;48.988;2.408;2023-05-10T11:15:33;100732.84;;;15.95;64.92
21290;BME280;10804;48.988;2.408;2023-05-10T11:18:17;100726.75;;;15.94;65.02
21290;BME280;10804;48.988;2.408;2023-05-10T11:20:50;100732.78;;;15.96;64.93
21290;BME280;10804;48.988;2.408;2023-05-10T11:23:18;100725.88;;;15.94;64.92
21290;BME280;10804;48.988;2.408;2023-05-10T11:25:47;100724.84;;;15.98;64.91
21290;BME280;10804;48.988;2.408;2023-05-10T11:28:17;100730.94;;;15.98;65.01
21290;BME280;10804;48.988;2.408;2023-05-10T11:30:46;100728.28;;;15.98;64.86
21290;BME280;10804;48.988;2.408;2023-05-10T11:33:17;100727.41;;;15.99;65.02
21290;BME280;10804;48.988;2.408;2023-05-10T11:35:45;100723.84;;;16.00;64.91
21290;BME280;10804;48.988;2.408;2023-05-10T11:38:13;100730.81;;;16.01;65.01
21290;BME280;10804;48.988;2.408;2023-05-10T11:40:41;100726.38;;;16.02;64.90
21290;BME280;10804;48.988;2.408;2023-05-10T11:43:09;100726.38;;;16.02;64.87
21290;BME280;10804;48.988;2.408;2023-05-10T11:45:37;100730.81;;;16.01;64.86
21290;BME280;10804;48.988;2.408;2023-05-10T11:48:06;100726.25;;;16.05;64.88
21290;BME280;10804;48.988;2.408;2023-05-10T11:50:34;100727.09;;;16.05;65.00
21290;BME280;10804;48.988;2.408;2023-05-10T11:53:01;100727.03;;;16.07;64.74
21290;BME280;10804;48.988;2.408;2023-05-10T11:55:29;100730.41;;;16.09;64.81
21290;BME280;10804;48.988;2.408;2023-05-10T11:58:01;100736.47;;;16.11;64.85
21290;BME280;10804;48.988;2.408;2023-05-10T12:00:30;100731.28;;;16.09;64.85
21290;BME280;10804;48.988;2.408;2023-05-10T12:02:57;100736.31;;;16.14;64.98
21290;BME280;10804;48.988;2.408;2023-05-10T12:05:26;100745.00;;;16.16;64.83
21290;BME280;10804;48.988;2.408;2023-05-10T12:08:12;100743.13;;;16.18;64.79
21290;BME280;10804;48.988;2.408;2023-05-10T12:10:40;100737.88;;;16.18;64.91
21290;BME280;10804;48.988;2.408;2023-05-10T12:13:11;100736.03;;;16.20;64.87
21290;BME280;10804;48.988;2.408;2023-05-10T12:15:38;100741.28;;;16.20;64.76
21290;BME280;10804;48.988;2.408;2023-05-10T12:18:08;100737.75;;;16.21;64.73
21290;BME280;10804;48.988;2.408;2023-05-10T12:20:38;100742.94;;;16.22;64.80
21290;BME280;10804;48.988;2.408;2023-05-10T12:23:07;100744.63;;;16.23;64.76
21290;BME280;10804;48.988;2.408;2023-05-10T12:25:36;100742.78;;;16.25;64.76
21290;BME280;10804;48.988;2.408;2023-05-10T12:28:05;100742.72;;;16.27;64.77
21290;BME280;10804;48.988;2.408;2023-05-10T12:30:35;100740.09;;;16.27;64.67
21290;BME280;10804;48.988;2.408;2023-05-10T12:33:07;100744.41;;;16.28;64.68
21290;BME280;10804;48.988;2.408;2023-05-10T12:35:45;100745.25;;;16.28;64.82
21290;BME280;10804;48.988;2.408;2023-05-10T12:38:26;100737.28;;;16.30;64.69
21290;BME280;10804;48.988;2.408;2023-05-10T12:40:55;100738.16;;;16.30;64.72
21290;BME280;10804;48.988;2.408;2023-05-10T12:43:22;100744.19;;;16.32;64.73
21290;BME280;10804;48.988;2.408;2023-05-10T12:45:50;100743.25;;;16.33;64.66
21290;BME280;10804;48.988;2.408;2023-05-10T12:48:17;100739.69;;;16.34;64.70
21290;BME280;10804;48.988;2.408;2023-05-10T12:50:46;100738.72;;;16.37;64.69
21290;BME280;10804;48.988;2.408;2023-05-10T12:53:14;100733.47;;;16.37;64.64
21290;BME280;10804;48.988;2.408;2023-05-10T12:55:42;100739.50;;;16.39;64.69
21290;BME280;10804;48.988;2.408;2023-05-10T12:58:10;100737.72;;;16.39;64.61
21290;BME280;10804;48.988;2.408;2023-05-10T13:00:37;100731.53;;;16.40;64.64
21290;BME280;10804;48.988;2.408;2023-05-10T13:03:05;100744.53;;;16.43;64.55